createdAt,value
2019-04-21T00:03:48.602Z,13.93
2019-04-21T00:06:51.062Z,14.17
2019-04-21T00:09:39.637Z,12.73
2019-04-21T00:12:22.781Z,12.47
2019-04-21T00:15:07.407Z,16.00
2019-04-21T00:20:38.198Z,15.33
2019-04-21T00:23:32.821Z,16.00
2019-04-21T00:26:23.873Z,14.13
2019-04-21T00:29:25.627Z,13.43
2019-04-21T00:35:04.698Z,19.20
2019-04-21T00:38:07.904Z,17.00
2019-04-21T00:41:23.589Z,14.20
2019-04-21T00:44:07.378Z,17.37
2019-04-21T00:46:58.332Z,19.53
2019-04-21T00:49:56.606Z,15.27
2019-04-21T00:53:00.916Z,15.97
2019-04-21T00:55:59.434Z,14.37
2019-04-21T00:58:53.418Z,16.40
2019-04-21T01:01:46.299Z,14.87
2019-04-21T01:04:33.821Z,15.63
2019-04-21T01:07:36.015Z,13.73
2019-04-21T01:10:22.152Z,14.07
2019-04-21T01:13:36.273Z,17.83
2019-04-21T01:16:37.502Z,16.83
2019-04-21T01:19:15.728Z,15.27
2019-04-21T01:25:04.325Z,16.57
2019-04-21T01:27:53.695Z,16.67
2019-04-21T01:30:59.451Z,15.97
2019-04-21T01:34:08.326Z,14.03
2019-04-21T01:42:39.434Z,15.60
2019-04-21T01:45:44.822Z,17.07
2019-04-21T01:48:24.706Z,15.93
2019-04-21T01:51:12.904Z,16.93
2019-04-21T01:54:31.754Z,16.20
2019-04-21T02:00:22.356Z,16.43
2019-04-21T02:03:34.455Z,14.67
2019-04-21T02:06:11.088Z,15.90
2019-04-21T02:11:50.687Z,17.17
2019-04-21T02:14:41.643Z,18.20
2019-04-21T02:20:24.413Z,14.90
2019-04-21T02:26:03.532Z,16.00
2019-04-21T02:28:56.567Z,17.77
2019-04-21T02:37:38.362Z,18.07
2019-04-21T02:40:11.510Z,19.13
2019-04-21T02:43:05.399Z,18.43
2019-04-21T02:46:10.312Z,20.27
2019-04-21T02:51:27.395Z,20.43
2019-04-21T02:57:41.469Z,19.20
2019-04-21T03:03:25.069Z,19.00
2019-04-21T03:06:27.031Z,17.17
2019-04-21T03:09:16.053Z,20.50
2019-04-21T03:12:05.263Z,18.73
2019-04-21T03:21:16.440Z,21.00
2019-04-21T03:24:01.175Z,17.80
2019-04-21T03:38:27.074Z,20.40
2019-04-21T03:41:10.755Z,21.37
2019-04-21T03:44:00.521Z,23.70
2019-04-21T03:46:52.587Z,19.00
2019-04-21T04:01:15.877Z,23.57
2019-04-21T04:07:42.469Z,20.10
2019-04-21T04:10:34.740Z,23.13
2019-04-21T04:13:19.904Z,17.93
2019-04-21T04:21:41.942Z,20.93
2019-04-21T04:24:22.310Z,23.77
2019-04-21T04:33:12.856Z,23.87
2019-04-21T04:36:01.703Z,22.23
2019-04-21T04:41:32.269Z,23.47
2019-04-21T04:50:33.760Z,22.70
2019-04-21T04:56:18.210Z,23.20
2019-04-21T05:04:58.319Z,24.10
2019-04-21T05:10:29.692Z,20.87
2019-04-21T05:13:17.158Z,21.90
2019-04-21T05:16:01.594Z,24.23
2019-04-21T05:27:39.976Z,25.33
2019-04-21T05:33:57.644Z,28.37
2019-04-21T05:37:04.109Z,25.20
2019-04-21T05:43:20.219Z,25.93
2019-04-21T05:46:21.216Z,25.90
2019-04-21T05:48:57.891Z,26.23
2019-04-21T05:52:03.614Z,24.43
2019-04-21T05:54:59.054Z,26.20
2019-04-21T05:57:39.681Z,25.93
2019-04-21T06:00:39.039Z,27.17
2019-04-21T06:08:46.951Z,25.57
2019-04-21T06:14:25.580Z,24.27
2019-04-21T06:17:19.184Z,26.47
2019-04-21T06:20:01.778Z,24.33
2019-04-21T06:22:49.034Z,23.93
2019-04-21T06:25:50.000Z,26.97
2019-04-21T06:28:27.083Z,27.30
2019-04-21T06:33:48.792Z,22.90
2019-04-21T06:42:35.447Z,22.27
2019-04-21T06:48:21.954Z,23.17
2019-04-21T06:57:01.976Z,21.80
2019-04-21T06:59:50.020Z,24.93
2019-04-21T07:05:27.106Z,27.17
2019-04-21T07:14:24.346Z,24.87
2019-04-21T07:17:08.911Z,22.40
2019-04-21T07:20:06.923Z,20.60
2019-04-21T07:25:32.756Z,19.87
2019-04-21T07:31:27.733Z,23.93
2019-04-21T07:34:27.093Z,20.70
2019-04-21T07:36:55.976Z,20.40
2019-04-21T07:39:40.307Z,21.53
2019-04-21T07:42:18.091Z,25.63
2019-04-21T07:45:08.792Z,25.20
2019-04-21T07:48:19.265Z,22.63
2019-04-21T07:54:06.305Z,20.40
2019-04-21T07:56:33.208Z,18.40
2019-04-21T07:59:48.539Z,21.27
2019-04-21T08:02:23.829Z,20.97
2019-04-21T08:05:16.055Z,26.37
2019-04-21T08:07:55.914Z,17.63
2019-04-21T08:10:47.073Z,19.67
2019-04-21T08:13:48.810Z,19.13
2019-04-21T08:16:30.426Z,18.23
2019-04-21T08:22:51.806Z,18.40
2019-04-21T08:25:54.893Z,18.13
2019-04-21T08:28:39.203Z,17.93
2019-04-21T08:31:25.768Z,16.47
2019-04-21T08:34:22.618Z,18.17
2019-04-21T08:36:56.733Z,16.07
2019-04-21T08:39:59.397Z,17.27
2019-04-21T08:42:36.795Z,20.47
2019-04-21T08:45:21.992Z,19.03
2019-04-21T08:48:05.848Z,17.37
2019-04-21T08:50:55.040Z,17.80
2019-04-21T08:53:42.759Z,23.03
2019-04-21T08:56:43.517Z,18.97
2019-04-21T09:03:02.489Z,14.57
2019-04-21T09:05:45.130Z,14.50
2019-04-21T09:08:39.610Z,12.37
2019-04-21T09:11:28.886Z,15.33
2019-04-21T09:14:13.683Z,16.67
2019-04-21T09:16:56.265Z,16.50
2019-04-21T09:22:30.691Z,14.57
2019-04-21T09:25:19.673Z,15.30
2019-04-21T09:28:07.025Z,20.17
2019-04-21T09:30:46.727Z,20.27
2019-04-21T09:33:33.440Z,19.87
2019-04-21T09:36:20.102Z,15.37
2019-04-21T09:42:06.610Z,14.30
2019-04-21T09:44:59.457Z,16.45
2019-04-21T09:50:57.535Z,14.20
2019-04-21T09:53:43.302Z,20.15
2019-04-21T09:56:34.375Z,14.58
2019-04-21T09:59:18.046Z,15.15
2019-04-21T10:02:06.389Z,16.07
2019-04-21T10:07:44.177Z,16.35
2019-04-21T10:10:34.909Z,17.45
2019-04-21T10:13:18.351Z,15.68
2019-04-21T10:16:19.651Z,16.25
2019-04-21T10:19:06.914Z,13.55
2019-04-21T10:21:50.158Z,14.20
2019-04-21T10:24:34.048Z,13.53
2019-04-21T10:27:17.201Z,18.80
2019-04-21T10:30:00.033Z,13.55
2019-04-21T10:32:46.155Z,15.60
2019-04-21T10:38:42.627Z,13.62
2019-04-21T10:41:25.555Z,14.40
2019-04-21T10:44:09.369Z,13.18
2019-04-21T10:46:54.104Z,14.80
2019-04-21T10:49:40.784Z,17.35
2019-04-21T10:52:32.445Z,14.30
2019-04-21T10:58:11.051Z,15.15
2019-04-21T11:01:00.035Z,14.87
2019-04-21T11:06:39.095Z,13.45
2019-04-21T11:09:28.369Z,13.18
2019-04-21T11:12:31.711Z,12.73
2019-04-21T11:21:29.082Z,13.22
2019-04-21T11:24:24.941Z,13.35
2019-04-21T11:27:15.163Z,17.37
2019-04-21T11:29:59.836Z,16.20
2019-04-21T11:32:44.958Z,16.45
2019-04-21T11:35:27.685Z,13.68
2019-04-21T11:38:19.027Z,14.50
2019-04-21T11:41:05.546Z,12.53
2019-04-21T11:43:48.863Z,11.65
2019-04-21T11:46:20.583Z,9.80
2019-04-21T11:49:06.230Z,13.28
2019-04-21T11:52:09.077Z,12.70
2019-04-21T11:54:44.694Z,11.83
2019-04-21T11:57:34.963Z,12.35
2019-04-21T12:00:15.589Z,14.28
2019-04-21T12:02:59.582Z,10.95
2019-04-21T12:05:43.504Z,10.55
2019-04-21T12:08:36.471Z,10.63
2019-04-21T12:11:13.779Z,9.43
2019-04-21T12:13:56.566Z,10.65
2019-04-21T12:16:41.094Z,9.80
2019-04-21T12:19:27.153Z,10.15
2019-04-21T12:22:21.031Z,10.32
2019-04-21T12:24:57.410Z,10.80
2019-04-21T12:27:41.686Z,9.05
2019-04-21T12:30:27.272Z,9.88
2019-04-21T12:33:36.226Z,9.00
2019-04-21T12:36:31.751Z,8.85
2019-04-21T12:39:30.537Z,10.60
2019-04-21T12:42:22.781Z,9.45
2019-04-21T12:45:05.755Z,8.83
2019-04-21T12:47:50.691Z,9.58
2019-04-21T12:50:34.089Z,11.30
2019-04-21T12:53:17.881Z,10.30
2019-04-21T12:56:02.158Z,10.08
2019-04-21T12:58:51.237Z,9.83
2019-04-21T13:04:43.921Z,11.12
2019-04-21T13:07:33.203Z,10.72
2019-04-21T13:13:35.695Z,10.48
2019-04-21T13:16:35.397Z,11.18
2019-04-21T13:22:21.711Z,9.18
2019-04-21T13:28:28.336Z,8.63
2019-04-21T13:31:12.529Z,9.98
2019-04-21T13:34:04.068Z,11.10
2019-04-21T13:40:25.219Z,10.10
2019-04-21T13:43:10.708Z,10.05
2019-04-21T13:45:53.973Z,10.45
2019-04-21T13:48:36.856Z,11.48
2019-04-21T13:51:20.054Z,13.03
2019-04-21T13:54:02.381Z,10.78
2019-04-21T13:56:45.015Z,12.60
2019-04-21T13:59:29.183Z,10.68
2019-04-21T14:02:11.303Z,9.35
2019-04-21T14:04:53.974Z,11.40
2019-04-21T14:07:36.428Z,9.65
2019-04-21T14:10:19.982Z,12.82
2019-04-21T14:13:06.863Z,11.12
2019-04-21T14:15:53.862Z,12.75
2019-04-21T14:18:38.475Z,10.88
2019-04-21T14:21:23.228Z,10.70
2019-04-21T14:24:09.053Z,9.50
2019-04-21T14:26:52.199Z,12.18
2019-04-21T14:29:35.475Z,11.35
2019-04-21T14:32:18.241Z,10.38
2019-04-21T14:35:09.092Z,10.93
2019-04-21T14:38:18.522Z,12.55
2019-04-21T14:41:03.980Z,12.18
2019-04-21T14:43:55.152Z,11.78
2019-04-21T14:56:11.460Z,11.40
2019-04-21T14:58:57.296Z,12.13
2019-04-21T15:01:40.055Z,10.08
2019-04-21T15:04:24.043Z,10.20
2019-04-21T15:10:04.687Z,11.18
2019-04-21T15:12:43.546Z,10.82
2019-04-21T15:15:25.696Z,9.20
2019-04-21T15:18:11.048Z,11.40
2019-04-21T15:20:55.175Z,10.32
2019-04-21T15:23:38.224Z,10.00
2019-04-21T15:29:17.106Z,11.03
2019-04-21T15:32:00.890Z,10.30
2019-04-21T15:37:37.835Z,9.83
2019-04-21T15:40:39.460Z,11.70
2019-04-21T15:43:10.751Z,8.03
2019-04-21T15:45:54.853Z,9.05
2019-04-21T15:51:22.031Z,8.53
2019-04-21T15:54:04.888Z,10.32
2019-04-21T16:02:48.770Z,10.00
2019-04-21T16:05:31.037Z,9.63
2019-04-21T16:11:13.640Z,8.33
2019-04-21T16:13:57.451Z,10.60
2019-04-21T16:16:43.267Z,11.83
2019-04-21T16:19:29.360Z,8.88
2019-04-21T16:22:12.825Z,9.35
2019-04-21T16:24:55.456Z,9.18
2019-04-21T16:30:28.586Z,11.75
2019-04-21T16:33:16.317Z,9.93
2019-04-21T16:36:01.972Z,9.50
2019-04-21T16:38:44.487Z,9.53
2019-04-21T16:41:26.857Z,9.95
2019-04-21T16:44:11.587Z,8.73
2019-04-21T16:46:55.656Z,8.40
2019-04-21T16:49:45.533Z,8.93
2019-04-21T16:58:28.299Z,9.43
2019-04-21T17:01:14.909Z,9.98
2019-04-21T17:22:39.575Z,9.48
2019-04-21T17:28:25.737Z,10.10
2019-04-21T17:31:10.858Z,12.20
2019-04-21T17:34:03.708Z,9.27
2019-04-21T17:36:45.382Z,11.30
2019-04-21T17:39:31.832Z,12.53
2019-04-21T17:42:13.971Z,10.90
2019-04-21T17:45:03.609Z,10.23
2019-04-21T17:48:15.917Z,9.90
2019-04-21T17:51:15.056Z,8.10
2019-04-21T17:54:33.804Z,10.17
2019-04-21T18:00:57.683Z,9.07
2019-04-21T18:03:07.672Z,11.00
2019-04-21T18:05:50.571Z,10.80
2019-04-21T18:08:40.175Z,9.50
2019-04-21T18:11:18.120Z,9.77
2019-04-21T18:13:55.572Z,10.20
2019-04-21T18:16:42.761Z,9.63
2019-04-21T18:28:02.898Z,8.40
2019-04-21T18:30:46.791Z,9.07
2019-04-21T18:33:38.900Z,9.47
2019-04-21T18:40:06.893Z,8.97
2019-04-21T18:46:22.882Z,10.53
2019-04-21T18:49:09.210Z,14.07
2019-04-21T18:52:16.884Z,11.37
2019-04-21T18:57:58.984Z,12.20
2019-04-21T19:13:20.498Z,9.60
2019-04-21T19:15:48.396Z,12.83
2019-04-21T19:21:20.450Z,12.17
2019-04-21T19:30:50.163Z,15.40
2019-04-21T19:33:31.709Z,15.10
2019-04-21T19:39:52.771Z,11.87
2019-04-21T19:49:40.044Z,12.83
2019-04-21T19:55:09.794Z,20.30
2019-04-21T19:57:56.760Z,20.30
2019-04-21T20:00:40.523Z,14.63
2019-04-21T20:03:28.514Z,17.93
2019-04-21T20:13:07.395Z,15.03
2019-04-21T20:15:50.918Z,15.70
2019-04-21T20:18:26.246Z,13.17
2019-04-21T20:21:03.911Z,15.10
2019-04-21T20:23:56.481Z,15.63
2019-04-21T20:27:09.226Z,17.50
2019-04-21T20:30:25.961Z,30.30
2019-04-21T20:36:15.000Z,32.67
2019-04-21T20:38:53.530Z,44.43
2019-04-21T20:41:44.248Z,32.50
2019-04-21T20:44:45.887Z,26.30
2019-04-21T20:50:14.123Z,19.03
2019-04-21T20:53:00.010Z,19.13
2019-04-21T20:55:37.963Z,22.87
2019-04-21T20:58:28.493Z,15.80
2019-04-21T21:04:29.598Z,11.97
2019-04-21T21:16:53.456Z,12.30
2019-04-21T21:19:39.744Z,13.83
2019-04-21T21:22:41.476Z,12.20
2019-04-21T21:25:44.708Z,14.93
2019-04-21T21:45:45.119Z,12.17
2019-04-21T21:52:04.471Z,16.57
2019-04-21T21:54:40.113Z,15.60
2019-04-21T21:57:28.425Z,12.37
2019-04-21T22:00:19.247Z,17.70
2019-04-21T22:03:14.748Z,15.83
2019-04-21T22:06:01.949Z,14.33
2019-04-21T22:08:50.302Z,14.77
2019-04-21T22:19:04.484Z,20.27
2019-04-21T22:28:33.761Z,18.37
2019-04-21T22:34:35.956Z,17.10
2019-04-21T22:37:35.270Z,18.30
2019-04-21T22:40:16.686Z,20.37
2019-04-21T23:14:17.134Z,17.07
2019-04-21T23:17:29.803Z,16.93
2019-04-21T23:20:10.234Z,21.33
2019-04-21T23:23:13.107Z,19.33
2019-04-21T23:28:51.294Z,22.87
2019-04-21T23:31:39.875Z,21.30
2019-04-21T23:34:10.854Z,16.87
2019-04-21T23:37:08.895Z,17.80
2019-04-21T23:40:15.887Z,22.13
2019-04-21T23:42:45.285Z,19.63
2019-04-21T23:45:34.022Z,18.97
2019-04-21T23:48:38.978Z,18.97
2019-04-21T23:51:31.432Z,19.73
2019-04-21T23:57:11.064Z,24.37
2019-04-21T23:59:53.379Z,20.83
